Stanleytown, Virginia
Current Conditions -  °F | °C
As of 9:55 PM on Thursday 27 Nov 2014 (Local Time) from KMTV Reporting Station
Broken Clouds Broken Clouds  
Wind Chill: 27°   Ceiling: 4600
Heat Index: 35°   Visibility: 10mi
Dew Point: 20°   Wind: 10mph
Humidity: 53%   Direction: 330°NNW
Pressure: 30.29"   Gusts: 20mph
Location:  36.75°N, 79.95°W
Report Text: KMTV 280255Z AUTO 33009G17KT 10SM SCT041 BKN046 02/M07 A3029 RMK AO2 T00171069
Loading
Personal Weather Stations






























Interactive Weather Map New forecast layout! Learn more

10-Day Weather Forecast

Advertisements
Track Severe Weather on mobile